createdAt,value
2018-09-17T00:01:21.310Z,17.20
2018-09-17T00:03:51.548Z,17.20
2018-09-17T00:06:21.520Z,17.10
2018-09-17T00:08:51.692Z,17.00
2018-09-17T00:11:23.097Z,17.00
2018-09-17T00:13:52.614Z,16.90
2018-09-17T00:16:22.248Z,16.90
2018-09-17T00:18:52.278Z,16.80
2018-09-17T00:21:22.028Z,16.80
2018-09-17T00:23:51.745Z,16.80
2018-09-17T00:26:23.376Z,16.80
2018-09-17T00:28:53.868Z,16.80
2018-09-17T00:31:23.954Z,16.80
2018-09-17T00:33:54.384Z,16.80
2018-09-17T00:36:24.513Z,16.80
2018-09-17T00:38:54.149Z,16.80
2018-09-17T00:41:25.964Z,16.70
2018-09-17T00:43:56.703Z,16.70
2018-09-17T00:46:26.573Z,16.70
2018-09-17T00:48:56.924Z,16.70
2018-09-17T00:51:27.073Z,16.70
2018-09-17T00:53:57.027Z,16.70
2018-09-17T00:56:27.662Z,16.60
2018-09-17T00:58:57.815Z,16.60
2018-09-17T01:01:27.677Z,16.60
2018-09-17T01:03:57.848Z,16.50
2018-09-17T01:06:29.088Z,16.50
2018-09-17T01:08:59.056Z,16.50
2018-09-17T01:11:28.935Z,16.50
2018-09-17T01:13:59.340Z,16.50
2018-09-17T01:16:29.584Z,16.40
2018-09-17T01:18:59.926Z,16.30
2018-09-17T01:21:31.187Z,16.30
2018-09-17T01:24:02.102Z,16.30
2018-09-17T01:26:32.093Z,16.20
2018-09-17T01:29:02.170Z,16.20
2018-09-17T01:31:32.469Z,16.20
2018-09-17T01:34:03.152Z,16.20
2018-09-17T01:36:33.785Z,16.20
2018-09-17T01:39:04.425Z,16.20
2018-09-17T01:41:34.293Z,16.20
2018-09-17T01:44:04.174Z,16.20
2018-09-17T01:46:34.458Z,16.20
2018-09-17T01:49:04.468Z,16.20
2018-09-17T01:51:44.069Z,16.20
2018-09-17T01:54:14.467Z,16.10
2018-09-17T01:56:44.680Z,16.10
2018-09-17T01:59:15.056Z,16.10
2018-09-17T02:01:45.828Z,16.10
2018-09-17T02:04:15.825Z,16.10
2018-09-17T02:06:46.372Z,16.10
2018-09-17T02:09:16.604Z,16.10
2018-09-17T02:11:47.384Z,16.10
2018-09-17T02:14:17.392Z,16.00
2018-09-17T02:16:50.237Z,16.00
2018-09-17T02:19:20.256Z,16.00
2018-09-17T02:21:49.918Z,15.90
2018-09-17T02:24:20.094Z,15.90
2018-09-17T02:26:49.775Z,15.80
2018-09-17T02:29:19.760Z,15.70
2018-09-17T02:31:51.098Z,15.60
2018-09-17T02:34:20.870Z,15.60
2018-09-17T02:36:51.836Z,15.70
2018-09-17T02:39:21.775Z,15.70
2018-09-17T02:41:51.709Z,15.70
2018-09-17T02:44:21.814Z,15.70
2018-09-17T02:46:52.353Z,15.70
2018-09-17T02:49:22.281Z,15.70
2018-09-17T02:51:52.138Z,15.80
2018-09-17T02:54:21.535Z,15.80
2018-09-17T02:56:51.379Z,15.80
2018-09-17T02:59:21.390Z,15.90
2018-09-17T03:01:52.953Z,15.90
2018-09-17T03:04:22.874Z,15.90
2018-09-17T03:06:52.961Z,16.00
2018-09-17T03:09:23.191Z,16.00
2018-09-17T03:11:53.117Z,16.00
2018-09-17T03:14:30.917Z,16.00
2018-09-17T03:17:10.406Z,16.10
2018-09-17T03:19:41.404Z,16.10
2018-09-17T03:22:12.213Z,16.10
2018-09-17T03:24:42.045Z,16.10
2018-09-17T03:27:12.211Z,16.10
2018-09-17T03:29:41.687Z,16.10
2018-09-17T03:32:11.549Z,16.10
2018-09-17T03:34:41.751Z,16.10
2018-09-17T03:37:16.666Z,16.10
2018-09-17T03:39:46.362Z,16.10
2018-09-17T03:42:16.509Z,16.20
2018-09-17T03:44:46.773Z,16.20
2018-09-17T03:47:19.084Z,16.20
2018-09-17T03:49:49.179Z,16.20
2018-09-17T03:52:19.330Z,16.10
2018-09-17T03:54:49.066Z,16.10
2018-09-17T03:57:19.793Z,16.10
2018-09-17T03:59:49.414Z,16.20
2018-09-17T04:02:19.055Z,16.20
2018-09-17T04:04:49.058Z,16.20
2018-09-17T04:07:22.079Z,16.20
2018-09-17T04:09:52.296Z,16.20
2018-09-17T04:12:24.655Z,16.20
2018-09-17T04:14:54.802Z,16.30
2018-09-17T04:17:25.213Z,16.20
2018-09-17T04:19:55.153Z,16.20
2018-09-17T04:22:29.348Z,16.20
2018-09-17T04:24:59.079Z,16.30
2018-09-17T04:27:29.430Z,16.30
2018-09-17T04:29:59.618Z,16.30
2018-09-17T04:32:30.433Z,16.30
2018-09-17T04:35:00.315Z,16.30
2018-09-17T04:37:30.679Z,16.30
2018-09-17T04:40:00.767Z,16.30
2018-09-17T04:42:31.187Z,16.20
2018-09-17T04:45:01.065Z,16.00
2018-09-17T04:47:32.135Z,15.80
2018-09-17T04:50:01.594Z,15.60
2018-09-17T04:52:43.644Z,15.60
2018-09-17T04:55:13.941Z,15.60
2018-09-17T04:57:43.780Z,15.70
2018-09-17T05:00:14.311Z,15.80
2018-09-17T05:02:44.758Z,15.80
2018-09-17T05:05:14.839Z,15.80
2018-09-17T05:07:44.918Z,15.90
2018-09-17T05:10:15.827Z,15.90
2018-09-17T05:12:45.889Z,15.90
2018-09-17T05:15:15.966Z,15.90
2018-09-17T05:17:46.417Z,16.00
2018-09-17T05:20:17.625Z,16.00
2018-09-17T05:22:47.566Z,15.90
2018-09-17T05:25:18.106Z,15.90
2018-09-17T05:27:47.577Z,16.00
2018-09-17T05:30:17.762Z,16.00
2018-09-17T05:32:47.498Z,16.00
2018-09-17T05:35:19.134Z,16.00
2018-09-17T05:37:56.146Z,16.00
2018-09-17T05:40:30.189Z,16.00
2018-09-17T05:43:00.650Z,16.10
2018-09-17T05:45:34.149Z,16.20
2018-09-17T05:48:04.807Z,16.30
2018-09-17T05:50:35.636Z,16.40
2018-09-17T05:53:06.182Z,16.50
2018-09-17T05:55:38.891Z,16.60
2018-09-17T05:58:09.621Z,16.70
2018-09-17T06:00:41.060Z,16.70
2018-09-17T06:03:10.737Z,16.80
2018-09-17T06:05:43.306Z,16.80
2018-09-17T06:08:13.866Z,16.80
2018-09-17T06:10:43.817Z,16.80
2018-09-17T06:13:13.088Z,16.90
2018-09-17T06:15:43.267Z,17.00
2018-09-17T06:18:14.551Z,17.10
2018-09-17T06:20:44.589Z,17.20
2018-09-17T06:23:14.341Z,17.20
2018-09-17T06:25:44.575Z,17.20
2018-09-17T06:28:14.510Z,17.30
2018-09-17T06:30:44.824Z,17.40
2018-09-17T06:33:14.942Z,17.40
2018-09-17T06:35:45.697Z,17.50
2018-09-17T06:38:15.867Z,17.50
2018-09-17T06:40:46.402Z,17.50
2018-09-17T06:43:17.751Z,17.50
2018-09-17T06:45:48.136Z,17.60
2018-09-17T06:48:17.825Z,17.50
2018-09-17T06:50:48.280Z,17.50
2018-09-17T06:53:18.334Z,17.50
2018-09-17T06:55:48.433Z,17.60
2018-09-17T06:58:18.972Z,17.60
2018-09-17T07:00:48.894Z,17.60
2018-09-17T07:03:18.418Z,17.70
2018-09-17T07:05:48.619Z,17.70
2018-09-17T07:08:19.681Z,17.80
2018-09-17T07:10:49.796Z,17.80
2018-09-17T07:13:20.066Z,17.80
2018-09-17T07:15:50.684Z,17.80
2018-09-17T07:18:20.680Z,17.90
2018-09-17T07:20:51.446Z,17.90
2018-09-17T07:23:21.721Z,17.90
2018-09-17T07:25:52.671Z,17.90
2018-09-17T07:28:23.055Z,17.80
2018-09-17T07:30:54.194Z,17.80
2018-09-17T07:33:24.381Z,17.90
2018-09-17T07:35:54.341Z,18.00
2018-09-17T07:38:24.199Z,18.00
2018-09-17T07:40:54.983Z,18.00
2018-09-17T07:43:25.504Z,18.10
2018-09-17T07:45:55.732Z,18.10
2018-09-17T07:48:25.590Z,18.20
2018-09-17T07:50:56.757Z,18.20
2018-09-17T07:53:26.479Z,18.30
2018-09-17T07:55:57.060Z,18.30
2018-09-17T07:58:27.457Z,18.40
2018-09-17T08:00:58.203Z,18.50
2018-09-17T08:03:28.807Z,18.60
2018-09-17T08:06:00.284Z,18.60
2018-09-17T08:08:31.212Z,18.70
2018-09-17T08:11:02.099Z,18.70
2018-09-17T08:13:32.200Z,18.70
2018-09-17T08:16:01.975Z,18.80
2018-09-17T08:18:32.320Z,18.90
2018-09-17T08:21:02.978Z,18.90
2018-09-17T08:23:33.223Z,19.00
2018-09-17T08:26:02.606Z,19.10
2018-09-17T08:28:32.961Z,19.10
2018-09-17T08:31:02.564Z,19.20
2018-09-17T08:33:32.877Z,19.20
2018-09-17T08:36:03.313Z,19.30
2018-09-17T08:38:34.344Z,19.30
2018-09-17T08:41:03.932Z,19.30
2018-09-17T08:43:34.277Z,19.40
2018-09-17T08:46:04.311Z,19.50
2018-09-17T08:48:35.159Z,19.50
2018-09-17T08:51:04.878Z,19.50
2018-09-17T08:53:35.581Z,19.60
2018-09-17T08:56:10.783Z,19.60
2018-09-17T08:58:46.157Z,19.70
2018-09-17T09:01:21.448Z,19.70
2018-09-17T09:03:55.819Z,19.80
2018-09-17T09:06:34.801Z,19.80
2018-09-17T09:09:07.139Z,19.80
2018-09-17T09:11:43.034Z,19.70
2018-09-17T09:14:18.264Z,19.40
2018-09-17T09:16:49.961Z,19.30
2018-09-17T09:19:19.885Z,19.30
2018-09-17T09:21:50.201Z,19.30
2018-09-17T09:24:20.925Z,19.50
2018-09-17T09:26:50.215Z,19.60
2018-09-17T09:29:20.456Z,19.70
2018-09-17T09:31:50.249Z,19.80
2018-09-17T09:34:20.824Z,20.00
2018-09-17T09:36:50.515Z,20.00
2018-09-17T09:39:20.953Z,20.00
2018-09-17T09:41:50.551Z,20.10
2018-09-17T09:44:21.040Z,20.10
2018-09-17T09:46:50.897Z,20.20
2018-09-17T09:49:21.447Z,20.30
2018-09-17T09:51:51.542Z,20.40
2018-09-17T09:54:22.037Z,20.50
2018-09-17T09:56:52.278Z,20.70
2018-09-17T09:59:22.216Z,20.80
2018-09-17T10:01:54.621Z,20.90
2018-09-17T10:04:24.656Z,21.00
2018-09-17T10:06:55.328Z,21.10
2018-09-17T10:09:36.794Z,21.20
2018-09-17T10:12:13.324Z,21.20
2018-09-17T10:14:49.326Z,21.30
2018-09-17T10:17:24.269Z,21.40
2018-09-17T10:19:56.427Z,21.40
2018-09-17T10:22:26.693Z,21.50
2018-09-17T10:24:57.403Z,21.60
2018-09-17T10:27:31.982Z,21.60
2018-09-17T10:30:02.865Z,21.60
2018-09-17T10:32:33.590Z,21.60
2018-09-17T10:35:07.504Z,21.70
2018-09-17T10:37:37.396Z,21.90
2018-09-17T10:40:08.092Z,22.00
2018-09-17T10:42:38.967Z,22.10
2018-09-17T10:45:10.761Z,22.20
2018-09-17T10:47:41.336Z,22.30
2018-09-17T10:50:13.090Z,22.40
2018-09-17T10:52:46.801Z,22.40
2018-09-17T10:55:17.471Z,22.50
2018-09-17T10:57:48.514Z,22.50
2018-09-17T11:00:20.492Z,22.50
2018-09-17T11:02:58.208Z,22.50
2018-09-17T11:05:35.000Z,22.60
2018-09-17T11:08:04.635Z,22.70
2018-09-17T11:10:35.613Z,22.80
2018-09-17T11:13:06.313Z,22.90
2018-09-17T11:15:42.050Z,23.00
2018-09-17T11:18:13.003Z,22.90
2018-09-17T11:20:43.620Z,22.90
2018-09-17T11:23:14.827Z,23.00
2018-09-17T11:25:45.224Z,23.10
2018-09-17T11:28:15.962Z,23.20
2018-09-17T11:30:46.080Z,23.30
2018-09-17T11:33:17.811Z,23.40
2018-09-17T11:35:47.860Z,23.50
2018-09-17T11:38:17.960Z,23.60
2018-09-17T11:40:48.924Z,23.60
2018-09-17T11:43:19.174Z,23.60
2018-09-17T11:45:49.580Z,23.60
2018-09-17T11:48:21.165Z,23.70
2018-09-17T11:50:52.201Z,23.60
2018-09-17T11:53:22.517Z,23.60
2018-09-17T11:55:53.419Z,23.70
2018-09-17T11:58:23.475Z,23.80
2018-09-17T12:00:59.765Z,23.80
2018-09-17T12:03:34.410Z,23.90
2018-09-17T12:06:05.891Z,24.00
2018-09-17T12:08:36.617Z,24.00
2018-09-17T12:11:07.141Z,24.10
2018-09-17T12:13:37.880Z,24.10
2018-09-17T12:16:08.281Z,24.10
2018-09-17T12:18:38.826Z,24.10
2018-09-17T12:21:09.860Z,24.20
2018-09-17T12:23:40.770Z,24.10
2018-09-17T12:26:11.417Z,24.20
2018-09-17T12:28:42.143Z,24.20
2018-09-17T12:31:12.380Z,24.30
2018-09-17T12:33:43.611Z,24.10
2018-09-17T12:36:13.818Z,24.20
2018-09-17T12:38:44.549Z,24.20
2018-09-17T12:41:14.656Z,24.30
2018-09-17T12:43:44.787Z,24.40
2018-09-17T12:46:16.376Z,24.50
2018-09-17T12:48:46.864Z,24.50
2018-09-17T12:51:16.892Z,24.60
2018-09-17T12:53:48.094Z,24.60
2018-09-17T12:56:18.644Z,24.60
2018-09-17T12:58:48.782Z,24.70
2018-09-17T13:01:18.660Z,24.70
2018-09-17T13:03:49.517Z,24.80
2018-09-17T13:06:19.920Z,24.80
2018-09-17T13:08:51.549Z,24.80
2018-09-17T13:11:21.270Z,24.80
2018-09-17T13:13:52.708Z,24.80
2018-09-17T13:16:22.391Z,24.80
2018-09-17T13:18:52.511Z,24.80
2018-09-17T13:21:22.716Z,24.80
2018-09-17T13:23:53.628Z,24.80
2018-09-17T13:26:24.183Z,24.70
2018-09-17T13:28:54.788Z,24.70
2018-09-17T13:31:25.454Z,24.60
2018-09-17T13:33:56.116Z,24.70
2018-09-17T13:36:26.342Z,24.90
2018-09-17T13:38:59.171Z,25.00
2018-09-17T13:41:30.341Z,25.10
2018-09-17T13:44:00.149Z,25.10
2018-09-17T13:46:31.446Z,25.10
2018-09-17T13:49:02.676Z,25.10
2018-09-17T13:51:34.323Z,25.20
2018-09-17T13:54:04.292Z,25.10
2018-09-17T13:56:35.161Z,25.20
2018-09-17T13:59:05.564Z,25.20
2018-09-17T14:01:36.050Z,25.20
2018-09-17T14:04:06.542Z,25.30
2018-09-17T14:06:38.204Z,25.40
2018-09-17T14:09:12.331Z,25.50
2018-09-17T14:11:43.457Z,25.70
2018-09-17T14:14:14.139Z,25.80
2018-09-17T14:16:45.117Z,25.90
2018-09-17T14:19:16.328Z,26.00
2018-09-17T14:21:46.444Z,26.00
2018-09-17T14:24:17.456Z,26.10
2018-09-17T14:26:47.775Z,26.10
2018-09-17T14:29:17.649Z,26.10
2018-09-17T14:31:52.707Z,26.00
2018-09-17T14:34:23.021Z,26.00
2018-09-17T14:36:53.473Z,25.90
2018-09-17T14:39:23.900Z,25.90
2018-09-17T14:41:54.223Z,25.80
2018-09-17T14:44:25.621Z,25.80
2018-09-17T14:46:57.176Z,25.80
2018-09-17T14:49:27.889Z,25.80
2018-09-17T14:51:58.810Z,25.90
2018-09-17T14:54:28.962Z,25.90
2018-09-17T14:56:59.708Z,26.00
2018-09-17T14:59:29.885Z,26.10
2018-09-17T15:02:01.317Z,26.10
2018-09-17T15:04:32.195Z,26.10
2018-09-17T15:07:02.746Z,26.10
2018-09-17T15:09:32.923Z,26.10
2018-09-17T15:12:04.607Z,26.10
2018-09-17T15:14:37.017Z,26.00
2018-09-17T15:17:08.611Z,26.00
2018-09-17T15:19:38.516Z,26.10
2018-09-17T15:22:11.724Z,26.10
2018-09-17T15:24:42.441Z,26.10
2018-09-17T15:27:14.117Z,26.10
2018-09-17T15:29:45.171Z,26.10
2018-09-17T15:32:16.840Z,26.10
2018-09-17T15:34:47.590Z,26.20
2018-09-17T15:37:17.727Z,26.20
2018-09-17T15:39:48.871Z,26.20
2018-09-17T15:42:20.962Z,26.20
2018-09-17T15:44:51.553Z,26.20
2018-09-17T15:47:24.255Z,26.10
2018-09-17T15:49:56.381Z,26.10
2018-09-17T15:52:28.151Z,26.10
2018-09-17T15:54:58.134Z,26.10
2018-09-17T15:57:28.742Z,26.00
2018-09-17T15:59:59.282Z,26.00
2018-09-17T16:02:31.194Z,26.00
2018-09-17T16:05:05.714Z,26.00
2018-09-17T16:07:36.464Z,26.00
2018-09-17T16:10:08.475Z,26.00
2018-09-17T16:12:38.393Z,26.00
2018-09-17T16:15:09.357Z,26.00
2018-09-17T16:17:40.740Z,25.90
2018-09-17T16:20:11.209Z,25.90
2018-09-17T16:22:41.702Z,25.90
2018-09-17T16:25:11.751Z,25.80
2018-09-17T16:27:42.813Z,25.80
2018-09-17T16:30:13.208Z,25.70
2018-09-17T16:32:43.717Z,25.70
2018-09-17T16:35:15.214Z,25.60
2018-09-17T16:37:45.902Z,25.60
2018-09-17T16:40:17.157Z,25.50
2018-09-17T16:42:48.167Z,25.40
2018-09-17T16:45:18.653Z,25.40
2018-09-17T16:47:50.367Z,25.30
2018-09-17T16:50:21.238Z,25.20
2018-09-17T16:52:52.388Z,25.20
2018-09-17T16:55:24.736Z,25.10
2018-09-17T16:57:55.554Z,25.00
2018-09-17T17:00:26.113Z,24.90
2018-09-17T17:02:57.432Z,24.80
2018-09-17T17:05:28.573Z,24.70
2018-09-17T17:07:59.232Z,24.70
2018-09-17T17:10:29.860Z,24.60
2018-09-17T17:13:01.299Z,24.50
2018-09-17T17:15:32.666Z,24.40
2018-09-17T17:18:03.595Z,24.30
2018-09-17T17:20:34.169Z,24.20
2018-09-17T17:23:05.850Z,24.20
2018-09-17T17:25:36.881Z,24.10
2018-09-17T17:28:07.406Z,24.00
2018-09-17T17:30:38.656Z,23.90
2018-09-17T17:33:09.378Z,23.90
2018-09-17T17:35:39.960Z,23.80
2018-09-17T17:38:11.502Z,23.70
2018-09-17T17:40:43.867Z,23.60
2018-09-17T17:43:16.076Z,23.60
2018-09-17T17:45:47.298Z,23.50
2018-09-17T17:48:24.549Z,23.40
2018-09-17T17:50:58.533Z,23.30
2018-09-17T17:53:29.967Z,23.20
2018-09-17T17:56:01.159Z,23.20
2018-09-17T17:58:32.892Z,23.10
2018-09-17T18:01:05.883Z,23.00
2018-09-17T18:03:39.447Z,22.90
2018-09-17T18:06:16.787Z,22.90
2018-09-17T18:08:48.495Z,22.80
2018-09-17T18:11:19.329Z,22.80
2018-09-17T18:13:53.144Z,22.70
2018-09-17T18:16:31.222Z,22.50
2018-09-17T18:19:02.879Z,22.40
2018-09-17T18:21:42.061Z,22.30
2018-09-17T18:24:18.386Z,22.20
2018-09-17T18:26:48.744Z,22.20
2018-09-17T18:29:18.541Z,22.20
2018-09-17T18:31:48.901Z,22.20
2018-09-17T18:34:20.185Z,22.10
2018-09-17T18:36:53.526Z,22.10
2018-09-17T18:39:29.374Z,22.10
2018-09-17T18:42:03.771Z,22.10
2018-09-17T18:44:35.260Z,22.00
2018-09-17T18:47:06.634Z,22.00
2018-09-17T18:49:37.046Z,22.00
2018-09-17T18:52:07.956Z,22.00
2018-09-17T18:54:39.529Z,22.00
2018-09-17T18:57:10.190Z,21.90
2018-09-17T18:59:41.249Z,21.90
2018-09-17T19:02:11.406Z,21.90
2018-09-17T19:04:41.916Z,21.80
2018-09-17T19:07:12.399Z,21.80
2018-09-17T19:09:50.001Z,21.70
2018-09-17T19:12:21.579Z,21.70
2018-09-17T19:14:57.769Z,21.60
2018-09-17T19:17:33.453Z,21.60
2018-09-17T19:20:04.697Z,21.50
2018-09-17T19:22:41.464Z,21.50
2018-09-17T19:25:14.070Z,21.40
2018-09-17T19:27:50.426Z,21.30
2018-09-17T19:30:20.220Z,21.20
2018-09-17T19:32:50.878Z,21.20
2018-09-17T19:35:21.725Z,21.10
2018-09-17T19:37:57.793Z,21.10
2018-09-17T19:40:27.813Z,21.00
2018-09-17T19:42:58.764Z,21.00
2018-09-17T19:45:34.689Z,21.00
2018-09-17T19:48:05.118Z,21.00
2018-09-17T19:50:41.447Z,20.90
2018-09-17T19:53:11.926Z,20.90
2018-09-17T19:55:42.056Z,20.90
2018-09-17T19:58:19.426Z,20.80
2018-09-17T20:00:54.994Z,20.80
2018-09-17T20:03:25.294Z,20.70
2018-09-17T20:06:01.323Z,20.70
2018-09-17T20:08:36.064Z,20.60
2018-09-17T20:11:07.076Z,20.60
2018-09-17T20:13:37.935Z,20.50
2018-09-17T20:16:08.143Z,20.40
2018-09-17T20:18:38.703Z,20.20
2018-09-17T20:21:09.552Z,20.00
2018-09-17T20:23:40.748Z,19.90
2018-09-17T20:26:11.321Z,19.80
2018-09-17T20:28:41.783Z,19.70
2018-09-17T20:31:12.616Z,19.60
2018-09-17T20:33:43.768Z,19.50
2018-09-17T20:36:14.960Z,19.40
2018-09-17T20:38:45.736Z,19.30
2018-09-17T20:41:16.622Z,19.30
2018-09-17T20:43:47.090Z,19.30
2018-09-17T20:46:17.248Z,19.20
2018-09-17T20:48:48.934Z,19.20
2018-09-17T20:51:19.944Z,19.10
2018-09-17T20:53:50.789Z,19.00
2018-09-17T20:56:23.129Z,19.00
2018-09-17T20:58:53.133Z,18.90
2018-09-17T21:01:23.762Z,18.80
2018-09-17T21:03:53.917Z,18.70
2018-09-17T21:06:24.375Z,18.60
2018-09-17T21:08:55.035Z,18.60
2018-09-17T21:11:26.099Z,18.50
2018-09-17T21:13:56.422Z,18.50
2018-09-17T21:16:26.463Z,18.50
2018-09-17T21:18:56.634Z,18.50
2018-09-17T21:21:26.967Z,18.40
2018-09-17T21:23:57.332Z,18.40
2018-09-17T21:26:27.733Z,18.30
2018-09-17T21:28:58.873Z,18.20
2018-09-17T21:31:29.770Z,18.20
2018-09-17T21:34:00.125Z,18.20
2018-09-17T21:36:31.599Z,18.20
2018-09-17T21:39:02.169Z,18.20
2018-09-17T21:41:32.450Z,18.20
2018-09-17T21:44:02.319Z,18.20
2018-09-17T21:46:33.747Z,18.20
2018-09-17T21:49:04.286Z,18.10
2018-09-17T21:51:34.354Z,18.00
2018-09-17T21:54:04.353Z,18.00
2018-09-17T21:56:34.521Z,17.90
2018-09-17T21:59:05.240Z,17.80
2018-09-17T22:01:35.722Z,17.80
2018-09-17T22:04:06.078Z,17.80
2018-09-17T22:06:36.449Z,17.80
2018-09-17T22:09:09.531Z,17.80
2018-09-17T22:11:40.050Z,17.80
2018-09-17T22:14:10.533Z,17.80
2018-09-17T22:16:40.491Z,17.80
2018-09-17T22:19:10.850Z,17.80
2018-09-17T22:21:42.033Z,17.80
2018-09-17T22:24:12.017Z,17.80
2018-09-17T22:26:42.523Z,17.80
2018-09-17T22:29:12.842Z,17.90
2018-09-17T22:31:43.100Z,17.90
2018-09-17T22:34:13.284Z,17.90
2018-09-17T22:36:43.665Z,17.90
2018-09-17T22:39:13.856Z,17.80
2018-09-17T22:41:44.674Z,17.80
2018-09-17T22:44:14.935Z,17.80
2018-09-17T22:46:45.127Z,17.70
2018-09-17T22:49:14.947Z,17.70
2018-09-17T22:51:45.243Z,17.80
2018-09-17T22:54:15.822Z,17.80
2018-09-17T22:56:46.395Z,17.80
2018-09-17T22:59:17.385Z,17.70
2018-09-17T23:01:47.447Z,17.70
2018-09-17T23:04:17.602Z,17.70
2018-09-17T23:06:47.740Z,17.60
2018-09-17T23:09:18.506Z,17.60
2018-09-17T23:11:48.564Z,17.60
2018-09-17T23:14:18.634Z,17.60
2018-09-17T23:16:48.590Z,17.60
2018-09-17T23:19:19.646Z,17.60
2018-09-17T23:21:49.853Z,17.50
2018-09-17T23:24:21.773Z,17.50
2018-09-17T23:26:51.947Z,17.50
2018-09-17T23:29:22.328Z,17.40
2018-09-17T23:31:52.546Z,17.30
2018-09-17T23:34:22.976Z,17.40
2018-09-17T23:36:53.427Z,17.20
2018-09-17T23:39:24.248Z,17.10
2018-09-17T23:41:55.437Z,17.00
2018-09-17T23:44:26.500Z,17.00
2018-09-17T23:46:57.715Z,17.00
2018-09-17T23:49:27.779Z,17.00
2018-09-17T23:51:57.979Z,16.90
2018-09-17T23:54:27.893Z,16.90
2018-09-17T23:56:59.388Z,16.80
2018-09-17T23:59:29.408Z,16.80
